sensor_id;sensor_type;location;lat;lon;timestamp;pressure;altitude;pressure_sealevel;temperature;humidity
43115;BME280;28727;50.068;14.452;2023-01-28T00:02:24;99885.66;;;1.19;75.26
43115;BME280;28727;50.068;14.452;2023-01-28T00:04:56;99887.44;;;1.18;75.51
43115;BME280;28727;50.068;14.452;2023-01-28T00:07:27;99884.13;;;1.16;75.43
43115;BME280;28727;50.068;14.452;2023-01-28T00:09:59;99892.31;;;1.10;75.34
43115;BME280;28727;50.068;14.452;2023-01-28T00:12:31;99888.94;;;1.08;76.27
43115;BME280;28727;50.068;14.452;2023-01-28T00:15:03;99887.94;;;1.11;75.93
43115;BME280;28727;50.068;14.452;2023-01-28T00:17:35;99884.00;;;1.18;76.06
43115;BME280;28727;50.068;14.452;2023-01-28T00:20:08;99882.53;;;1.14;76.12
43115;BME280;28727;50.068;14.452;2023-01-28T00:22:39;99880.69;;;1.16;76.08
43115;BME280;28727;50.068;14.452;2023-01-28T00:25:11;99875.38;;;1.17;76.07
43115;BME280;28727;50.068;14.452;2023-01-28T00:27:43;99874.25;;;1.21;76.01
43115;BME280;28727;50.068;14.452;2023-01-28T00:30:16;99883.34;;;1.29;76.14
43115;BME280;28727;50.068;14.452;2023-01-28T00:32:48;99877.38;;;1.27;75.68
43115;BME280;28727;50.068;14.452;2023-01-28T00:35:20;99883.53;;;1.26;76.05
43115;BME280;28727;50.068;14.452;2023-01-28T00:37:51;99884.38;;;1.26;75.35
43115;BME280;28727;50.068;14.452;2023-01-28T00:40:23;99881.97;;;1.23;76.01
43115;BME280;28727;50.068;14.452;2023-01-28T00:42:55;99880.22;;;1.23;75.85
43115;BME280;28727;50.068;14.452;2023-01-28T00:45:27;99885.50;;;1.22;75.90
43115;BME280;28727;50.068;14.452;2023-01-28T00:47:58;99882.81;;;1.23;75.47
43115;BME280;28727;50.068;14.452;2023-01-28T00:50:30;99881.59;;;1.29;75.70
43115;BME280;28727;50.068;14.452;2023-01-28T00:53:02;99886.56;;;1.32;75.74
43115;BME280;28727;50.068;14.452;2023-01-28T00:55:34;99894.38;;;1.32;75.67
43115;BME280;28727;50.068;14.452;2023-01-28T00:58:05;99892.63;;;1.33;75.76
43115;BME280;28727;50.068;14.452;2023-01-28T01:00:37;99883.22;;;1.30;75.27
43115;BME280;28727;50.068;14.452;2023-01-28T01:03:09;99892.06;;;1.28;75.32
43115;BME280;28727;50.068;14.452;2023-01-28T01:05:41;99890.31;;;1.28;75.54
43115;BME280;28727;50.068;14.452;2023-01-28T01:08:12;99889.38;;;1.29;75.31
43115;BME280;28727;50.068;14.452;2023-01-28T01:10:44;99897.81;;;1.33;75.28
43115;BME280;28727;50.068;14.452;2023-01-28T01:13:18;99889.19;;;1.32;75.43
43115;BME280;28727;50.068;14.452;2023-01-28T01:15:50;99891.69;;;1.34;75.18
43115;BME280;28727;50.068;14.452;2023-01-28T01:18:21;99895.66;;;1.39;75.02
43115;BME280;28727;50.068;14.452;2023-01-28T01:20:53;99892.63;;;1.33;75.40
43115;BME280;28727;50.068;14.452;2023-01-28T01:23:30;99899.59;;;1.32;75.11
43115;BME280;28727;50.068;14.452;2023-01-28T01:26:03;99906.56;;;1.32;74.78
43115;BME280;28727;50.068;14.452;2023-01-28T01:28:35;99907.41;;;1.32;75.00
43115;BME280;28727;50.068;14.452;2023-01-28T01:31:11;99914.56;;;1.29;75.44
43115;BME280;28727;50.068;14.452;2023-01-28T01:33:46;99905.84;;;1.30;74.98
43115;BME280;28727;50.068;14.452;2023-01-28T01:36:18;99915.59;;;1.26;75.54
43115;BME280;28727;50.068;14.452;2023-01-28T01:38:53;99918.28;;;1.24;75.36
43115;BME280;28727;50.068;14.452;2023-01-28T01:41:31;99920.78;;;1.26;75.67
43115;BME280;28727;50.068;14.452;2023-01-28T01:44:05;99920.63;;;1.29;75.16
43115;BME280;28727;50.068;14.452;2023-01-28T01:46:49;99921.63;;;1.27;75.35
43115;BME280;28727;50.068;14.452;2023-01-28T01:49:24;99918.00;;;1.29;75.45
43115;BME280;28727;50.068;14.452;2023-01-28T01:52:02;99926.44;;;1.33;75.64
43115;BME280;28727;50.068;14.452;2023-01-28T01:54:42;99927.47;;;1.30;75.20
43115;BME280;28727;50.068;14.452;2023-01-28T01:57:21;99923.22;;;1.29;75.61
43115;BME280;28727;50.068;14.452;2023-01-28T01:59:54;99922.16;;;1.32;75.40
43115;BME280;28727;50.068;14.452;2023-01-28T02:02:28;99915.59;;;1.26;75.50
43115;BME280;28727;50.068;14.452;2023-01-28T02:05:01;99915.88;;;1.21;75.54
43115;BME280;28727;50.068;14.452;2023-01-28T02:07:34;99922.09;;;1.19;75.37
43115;BME280;28727;50.068;14.452;2023-01-28T02:10:08;99916.81;;;1.20;75.39
43115;BME280;28727;50.068;14.452;2023-01-28T02:12:49;99923.59;;;1.23;75.44
43115;BME280;28727;50.068;14.452;2023-01-28T02:15:32;99926.09;;;1.24;75.60
43115;BME280;28727;50.068;14.452;2023-01-28T02:18:06;99926.66;;;1.30;75.54
43115;BME280;28727;50.068;14.452;2023-01-28T02:29:24;99923.59;;;1.23;76.06
43115;BME280;28727;50.068;14.452;2023-01-28T02:32:21;99926.84;;;1.27;75.82
43115;BME280;28727;50.068;14.452;2023-01-28T02:35:12;99922.25;;;1.30;76.02
43115;BME280;28727;50.068;14.452;2023-01-28T02:37:52;99928.84;;;1.36;75.33
43115;BME280;28727;50.068;14.452;2023-01-28T02:40:30;99931.34;;;1.37;75.43
43115;BME280;28727;50.068;14.452;2023-01-28T02:43:06;99922.63;;;1.38;75.35
43115;BME280;28727;50.068;14.452;2023-01-28T02:45:38;99924.94;;;1.43;75.20
43115;BME280;28727;50.068;14.452;2023-01-28T02:48:32;99935.88;;;1.48;75.23
43115;BME280;28727;50.068;14.452;2023-01-28T02:51:14;99929.66;;;1.50;74.80
43115;BME280;28727;50.068;14.452;2023-01-28T02:54:10;99925.75;;;1.43;74.70
43115;BME280;28727;50.068;14.452;2023-01-28T02:59:43;99925.22;;;1.38;75.33
43115;BME280;28727;50.068;14.452;2023-01-28T03:02:41;99924.22;;;1.41;75.26
43115;BME280;28727;50.068;14.452;2023-01-28T03:05:48;99932.44;;;1.47;74.57
43115;BME280;28727;50.068;14.452;2023-01-28T03:08:39;99932.28;;;1.36;74.75
43115;BME280;28727;50.068;14.452;2023-01-28T03:11:37;99932.09;;;1.39;75.08
43115;BME280;28727;50.068;14.452;2023-01-28T03:14:29;99929.69;;;1.36;75.18
43115;BME280;28727;50.068;14.452;2023-01-28T03:17:35;99923.25;;;1.42;75.64
43115;BME280;28727;50.068;14.452;2023-01-28T03:20:33;99933.56;;;1.43;74.94
43115;BME280;28727;50.068;14.452;2023-01-28T03:23:47;99932.19;;;1.38;75.25
43115;BME280;28727;50.068;14.452;2023-01-28T03:26:57;99929.97;;;1.32;75.21
43115;BME280;28727;50.068;14.452;2023-01-28T03:29:57;99933.97;;;1.37;75.50
43115;BME280;28727;50.068;14.452;2023-01-28T03:32:49;99930.13;;;1.43;75.36
43115;BME280;28727;50.068;14.452;2023-01-28T03:35:41;99924.84;;;1.44;75.24
43115;BME280;28727;50.068;14.452;2023-01-28T03:38:32;99929.22;;;1.44;74.75
43115;BME280;28727;50.068;14.452;2023-01-28T03:41:23;99925.13;;;1.40;74.99
43115;BME280;28727;50.068;14.452;2023-01-28T03:43:57;99940.94;;;1.37;74.64
43115;BME280;28727;50.068;14.452;2023-01-28T03:46:50;99941.75;;;1.37;75.28
43115;BME280;28727;50.068;14.452;2023-01-28T03:49:22;99946.59;;;1.43;75.00
43115;BME280;28727;50.068;14.452;2023-01-28T03:51:53;99944.81;;;1.44;75.45
43115;BME280;28727;50.068;14.452;2023-01-28T03:54:25;99936.94;;;1.45;75.14
43115;BME280;28727;50.068;14.452;2023-01-28T03:56:57;99941.75;;;1.51;74.90
43115;BME280;28727;50.068;14.452;2023-01-28T03:59:29;99943.59;;;1.49;75.08
43115;BME280;28727;50.068;14.452;2023-01-28T04:02:00;99937.75;;;1.46;75.13
43115;BME280;28727;50.068;14.452;2023-01-28T04:04:38;99944.06;;;1.42;74.88
43115;BME280;28727;50.068;14.452;2023-01-28T04:07:11;99944.06;;;1.42;74.90
43115;BME280;28727;50.068;14.452;2023-01-28T04:10:06;99940.44;;;1.44;75.13
43115;BME280;28727;50.068;14.452;2023-01-28T04:12:46;99933.41;;;1.46;74.88
43115;BME280;28727;50.068;14.452;2023-01-28T04:15:22;99944.06;;;1.56;75.28
43115;BME280;28727;50.068;14.452;2023-01-28T04:17:57;99943.31;;;1.54;74.68
43115;BME280;28727;50.068;14.452;2023-01-28T04:20:32;99941.34;;;1.57;74.86
43115;BME280;28727;50.068;14.452;2023-01-28T04:23:05;99938.53;;;1.60;74.91
43115;BME280;28727;50.068;14.452;2023-01-28T04:25:38;99946.06;;;1.65;74.77
43115;BME280;28727;50.068;14.452;2023-01-28T04:28:12;99946.72;;;1.69;74.81
43115;BME280;28727;50.068;14.452;2023-01-28T04:30:44;99945.88;;;1.68;74.48
43115;BME280;28727;50.068;14.452;2023-01-28T04:33:34;99947.41;;;1.58;74.15
43115;BME280;28727;50.068;14.452;2023-01-28T04:36:24;99950.66;;;1.47;74.69
43115;BME280;28727;50.068;14.452;2023-01-28T04:39:15;99954.31;;;1.45;74.78
43115;BME280;28727;50.068;14.452;2023-01-28T04:42:03;99950.03;;;1.44;75.43
43115;BME280;28727;50.068;14.452;2023-01-28T04:44:55;99955.31;;;1.42;75.10
43115;BME280;28727;50.068;14.452;2023-01-28T04:48:02;99959.50;;;1.45;75.17
43115;BME280;28727;50.068;14.452;2023-01-28T04:51:06;99955.06;;;1.47;75.13
43115;BME280;28727;50.068;14.452;2023-01-28T04:53:55;99958.38;;;1.49;75.42
43115;BME280;28727;50.068;14.452;2023-01-28T04:56:33;99960.16;;;1.48;74.99
43115;BME280;28727;50.068;14.452;2023-01-28T04:59:05;99959.88;;;1.53;74.99
43115;BME280;28727;50.068;14.452;2023-01-28T05:01:38;99958.28;;;1.50;75.22
43115;BME280;28727;50.068;14.452;2023-01-28T05:04:11;99971.94;;;1.54;75.29
43115;BME280;28727;50.068;14.452;2023-01-28T05:06:45;99967.78;;;1.51;75.14
43115;BME280;28727;50.068;14.452;2023-01-28T05:09:20;99959.13;;;1.51;75.12
43115;BME280;28727;50.068;14.452;2023-01-28T05:11:55;99972.06;;;1.52;75.07
43115;BME280;28727;50.068;14.452;2023-01-28T05:14:27;99967.56;;;1.54;74.65
43115;BME280;28727;50.068;14.452;2023-01-28T05:17:04;99966.09;;;1.50;75.07
43115;BME280;28727;50.068;14.452;2023-01-28T05:19:36;99968.88;;;1.47;75.27
43115;BME280;28727;50.068;14.452;2023-01-28T05:22:13;99974.91;;;1.48;75.54
43115;BME280;28727;50.068;14.452;2023-01-28T05:24:48;99968.78;;;1.49;75.36
43115;BME280;28727;50.068;14.452;2023-01-28T05:27:19;99974.19;;;1.46;74.95
43115;BME280;28727;50.068;14.452;2023-01-28T05:29:51;99969.28;;;1.41;75.38
43115;BME280;28727;50.068;14.452;2023-01-28T05:32:24;99972.44;;;1.46;75.31
43115;BME280;28727;50.068;14.452;2023-01-28T05:34:57;99972.44;;;1.46;75.12
43115;BME280;28727;50.068;14.452;2023-01-28T05:37:29;99973.28;;;1.47;75.33
43115;BME280;28727;50.068;14.452;2023-01-28T05:40:01;99977.97;;;1.54;75.16
43115;BME280;28727;50.068;14.452;2023-01-28T05:42:33;99983.09;;;1.56;74.87
43115;BME280;28727;50.068;14.452;2023-01-28T05:45:19;99982.81;;;1.60;75.14
43115;BME280;28727;50.068;14.452;2023-01-28T05:48:09;99987.38;;;1.57;74.66
43115;BME280;28727;50.068;14.452;2023-01-28T05:51:07;99984.78;;;1.57;75.13
43115;BME280;28727;50.068;14.452;2023-01-28T05:53:41;99983.72;;;1.59;75.10
43115;BME280;28727;50.068;14.452;2023-01-28T05:56:14;99973.53;;;1.56;75.43
43115;BME280;28727;50.068;14.452;2023-01-28T05:58:47;99980.41;;;1.57;74.78
43115;BME280;28727;50.068;14.452;2023-01-28T06:01:18;99985.69;;;1.56;75.01
43115;BME280;28727;50.068;14.452;2023-01-28T06:03:56;99986.63;;;1.55;74.86
43115;BME280;28727;50.068;14.452;2023-01-28T06:06:31;99982.34;;;1.54;74.71
43115;BME280;28727;50.068;14.452;2023-01-28T06:09:04;99991.91;;;1.53;74.79
43115;BME280;28727;50.068;14.452;2023-01-28T06:11:36;99993.81;;;1.51;75.10
43115;BME280;28727;50.068;14.452;2023-01-28T06:14:09;99993.06;;;1.49;75.18
43115;BME280;28727;50.068;14.452;2023-01-28T06:16:59;99993.81;;;1.51;74.56
43115;BME280;28727;50.068;14.452;2023-01-28T06:19:40;100003.56;;;1.48;74.94
43115;BME280;28727;50.068;14.452;2023-01-28T06:22:12;100007.53;;;1.53;74.66
43115;BME280;28727;50.068;14.452;2023-01-28T06:24:44;100012.88;;;1.52;74.88
43115;BME280;28727;50.068;14.452;2023-01-28T06:27:15;100011.19;;;1.51;74.60
43115;BME280;28727;50.068;14.452;2023-01-28T06:29:47;100011.75;;;1.42;74.84
43115;BME280;28727;50.068;14.452;2023-01-28T06:32:23;100021.97;;;1.45;74.68
43115;BME280;28727;50.068;14.452;2023-01-28T06:34:54;100017.53;;;1.47;74.66
43115;BME280;28727;50.068;14.452;2023-01-28T06:37:28;100013.34;;;1.44;75.04
43115;BME280;28727;50.068;14.452;2023-01-28T06:39:59;100025.22;;;1.48;74.69
43115;BME280;28727;50.068;14.452;2023-01-28T06:42:31;100019.00;;;1.51;75.10
43115;BME280;28727;50.068;14.452;2023-01-28T06:45:03;100025.03;;;1.51;74.54
43115;BME280;28727;50.068;14.452;2023-01-28T06:47:35;100031.34;;;1.47;74.58
43115;BME280;28727;50.068;14.452;2023-01-28T06:50:07;100029.41;;;1.51;74.97
43115;BME280;28727;50.068;14.452;2023-01-28T06:52:39;100032.66;;;1.54;74.59
43115;BME280;28727;50.068;14.452;2023-01-28T06:55:13;100034.78;;;1.48;74.26
43115;BME280;28727;50.068;14.452;2023-01-28T06:57:47;100042.88;;;1.43;74.18
43115;BME280;28727;50.068;14.452;2023-01-28T07:00:19;100045.50;;;1.43;73.87
43115;BME280;28727;50.068;14.452;2023-01-28T07:02:54;100045.97;;;1.50;74.04
43115;BME280;28727;50.068;14.452;2023-01-28T07:05:27;100053.75;;;1.50;73.78
43115;BME280;28727;50.068;14.452;2023-01-28T07:08:04;100056.28;;;1.51;73.89
43115;BME280;28727;50.068;14.452;2023-01-28T07:10:36;100060.44;;;1.54;73.60
43115;BME280;28727;50.068;14.452;2023-01-28T07:13:08;100061.50;;;1.51;73.81
43115;BME280;28727;50.068;14.452;2023-01-28T07:15:40;100058.03;;;1.51;73.86
43115;BME280;28727;50.068;14.452;2023-01-28T07:18:12;100061.78;;;1.47;74.15
43115;BME280;28727;50.068;14.452;2023-01-28T07:20:43;100059.59;;;1.53;73.75
43115;BME280;28727;50.068;14.452;2023-01-28T07:23:15;100067.25;;;1.56;73.80
43115;BME280;28727;50.068;14.452;2023-01-28T07:25:47;100057.47;;;1.60;73.47
43115;BME280;28727;50.068;14.452;2023-01-28T07:28:19;100071.44;;;1.59;73.05
43115;BME280;28727;50.068;14.452;2023-01-28T07:30:52;100078.78;;;1.52;72.77
43115;BME280;28727;50.068;14.452;2023-01-28T07:33:24;100081.09;;;1.57;72.55
43115;BME280;28727;50.068;14.452;2023-01-28T07:35:56;100074.03;;;1.45;72.95
43115;BME280;28727;50.068;14.452;2023-01-28T07:38:28;100082.31;;;1.51;73.30
43115;BME280;28727;50.068;14.452;2023-01-28T07:40:59;100075.97;;;1.55;72.39
43115;BME280;28727;50.068;14.452;2023-01-28T07:43:31;100077.47;;;1.45;72.68
43115;BME280;28727;50.068;14.452;2023-01-28T07:46:07;100076.09;;;1.40;72.43
43115;BME280;28727;50.068;14.452;2023-01-28T07:48:38;100076.16;;;1.38;72.68
43115;BME280;28727;50.068;14.452;2023-01-28T07:51:10;100080.38;;;1.41;71.79
43115;BME280;28727;50.068;14.452;2023-01-28T07:53:42;100078.50;;;1.29;72.49
43115;BME280;28727;50.068;14.452;2023-01-28T07:56:14;100086.31;;;1.29;72.12
43115;BME280;28727;50.068;14.452;2023-01-28T07:58:50;100083.03;;;1.25;72.51
43115;BME280;28727;50.068;14.452;2023-01-28T08:01:22;100094.66;;;1.34;72.49
43115;BME280;28727;50.068;14.452;2023-01-28T08:03:54;100092.59;;;1.24;71.91
43115;BME280;28727;50.068;14.452;2023-01-28T08:06:27;100102.44;;;1.19;72.67
43115;BME280;28727;50.068;14.452;2023-01-28T08:08:59;100104.97;;;1.21;72.44
43115;BME280;28727;50.068;14.452;2023-01-28T08:11:39;100102.38;;;1.21;72.23
43115;BME280;28727;50.068;14.452;2023-01-28T08:14:11;100106.94;;;1.17;72.78
43115;BME280;28727;50.068;14.452;2023-01-28T08:16:43;100112.88;;;1.19;72.94
43115;BME280;28727;50.068;14.452;2023-01-28T08:19:15;100116.88;;;1.25;72.42
43115;BME280;28727;50.068;14.452;2023-01-28T08:21:48;100121.69;;;1.31;72.35
43115;BME280;28727;50.068;14.452;2023-01-28T08:24:20;100124.03;;;1.36;72.49
43115;BME280;28727;50.068;14.452;2023-01-28T08:26:52;100117.72;;;1.40;72.38
43115;BME280;28727;50.068;14.452;2023-01-28T08:29:24;100117.53;;;1.43;72.18
43115;BME280;28727;50.068;14.452;2023-01-28T08:31:57;100122.72;;;1.43;72.10
43115;BME280;28727;50.068;14.452;2023-01-28T08:34:28;100116.13;;;1.37;71.81
43115;BME280;28727;50.068;14.452;2023-01-28T08:39:30;100126.91;;;1.31;72.09
43115;BME280;28727;50.068;14.452;2023-01-28T08:42:01;100133.16;;;1.29;71.46
43115;BME280;28727;50.068;14.452;2023-01-28T08:44:33;100124.31;;;1.17;71.77
43115;BME280;28727;50.068;14.452;2023-01-28T08:47:05;100129.59;;;1.15;71.90
43115;BME280;28727;50.068;14.452;2023-01-28T08:49:37;100133.75;;;1.18;72.36
43115;BME280;28727;50.068;14.452;2023-01-28T08:52:08;100136.28;;;1.19;72.07
43115;BME280;28727;50.068;14.452;2023-01-28T08:54:41;100138.25;;;1.30;73.54
43115;BME280;28727;50.068;14.452;2023-01-28T08:57:13;100143.66;;;1.41;72.42
43115;BME280;28727;50.068;14.452;2023-01-28T08:59:44;100147.84;;;1.44;72.90
43115;BME280;28727;50.068;14.452;2023-01-28T09:02:16;100145.06;;;1.47;72.62
43115;BME280;28727;50.068;14.452;2023-01-28T09:05:01;100144.69;;;1.53;72.74
43115;BME280;28727;50.068;14.452;2023-01-28T09:07:34;100148.50;;;1.61;72.36
43115;BME280;28727;50.068;14.452;2023-01-28T09:10:08;100151.50;;;1.70;71.39
43115;BME280;28727;50.068;14.452;2023-01-28T09:12:40;100155.19;;;1.65;71.17
43115;BME280;28727;50.068;14.452;2023-01-28T09:15:12;100154.34;;;1.65;71.22
43115;BME280;28727;50.068;14.452;2023-01-28T09:17:44;100153.72;;;1.61;71.10
43115;BME280;28727;50.068;14.452;2023-01-28T09:20:16;100150.19;;;1.62;70.88
43115;BME280;28727;50.068;14.452;2023-01-28T09:22:48;100151.75;;;1.51;70.88
43115;BME280;28727;50.068;14.452;2023-01-28T09:25:20;100159.09;;;1.44;70.87
43115;BME280;28727;50.068;14.452;2023-01-28T09:27:51;100160.00;;;1.43;70.12
43115;BME280;28727;50.068;14.452;2023-01-28T09:30:24;100159.09;;;1.44;69.90
43115;BME280;28727;50.068;14.452;2023-01-28T09:32:56;100161.94;;;1.26;70.95
43115;BME280;28727;50.068;14.452;2023-01-28T09:35:28;100172.19;;;1.29;70.76
43115;BME280;28727;50.068;14.452;2023-01-28T09:38:00;100180.16;;;1.26;70.72
43115;BME280;28727;50.068;14.452;2023-01-28T09:40:34;100174.16;;;1.39;69.68
43115;BME280;28727;50.068;14.452;2023-01-28T09:45:59;100170.03;;;1.21;70.30
43115;BME280;28727;50.068;14.452;2023-01-28T09:48:37;100179.59;;;1.20;70.02
43115;BME280;28727;50.068;14.452;2023-01-28T09:53:54;100171.38;;;1.12;69.60
43115;BME280;28727;50.068;14.452;2023-01-28T09:56:35;100175.19;;;1.07;70.11
43115;BME280;28727;50.068;14.452;2023-01-28T09:59:26;100185.78;;;1.04;70.15
43115;BME280;28727;50.068;14.452;2023-01-28T10:02:03;100188.03;;;1.10;69.90
43115;BME280;28727;50.068;14.452;2023-01-28T10:05:30;100184.75;;;1.06;69.74
43115;BME280;28727;50.068;14.452;2023-01-28T10:10:49;100182.34;;;1.03;70.02
43115;BME280;28727;50.068;14.452;2023-01-28T10:16:18;100186.25;;;1.10;70.54
43115;BME280;28727;50.068;14.452;2023-01-28T10:19:09;100184.09;;;1.03;69.72
43115;BME280;28727;50.068;14.452;2023-01-28T10:21:51;100177.56;;;0.96;70.58
43115;BME280;28727;50.068;14.452;2023-01-28T10:24:31;100185.34;;;0.96;70.13
43115;BME280;28727;50.068;14.452;2023-01-28T10:27:27;100188.06;;;0.94;70.36
43115;BME280;28727;50.068;14.452;2023-01-28T10:30:14;100191.06;;;1.02;70.82
43115;BME280;28727;50.068;14.452;2023-01-28T10:33:30;100188.53;;;1.01;70.17
43115;BME280;28727;50.068;14.452;2023-01-28T10:35:59;100188.06;;;0.94;70.15
43115;BME280;28727;50.068;14.452;2023-01-28T10:38:31;100189.50;;;0.84;70.64
43115;BME280;28727;50.068;14.452;2023-01-28T10:41:04;100193.97;;;0.82;70.77
43115;BME280;28727;50.068;14.452;2023-01-28T10:43:43;100195.16;;;0.76;70.50
43115;BME280;28727;50.068;14.452;2023-01-28T10:46:31;100195.81;;;0.80;70.83
43115;BME280;28727;50.068;14.452;2023-01-28T10:51:39;100202.09;;;0.76;70.24
43115;BME280;28727;50.068;14.452;2023-01-28T10:56:56;100197.47;;;0.65;70.06
43115;BME280;28727;50.068;14.452;2023-01-28T11:02:03;100210.75;;;0.61;69.88
43115;BME280;28727;50.068;14.452;2023-01-28T11:04:35;100206.38;;;0.61;69.90
43115;BME280;28727;50.068;14.452;2023-01-28T11:07:18;100212.59;;;0.59;69.67
43115;BME280;28727;50.068;14.452;2023-01-28T11:09:50;100211.06;;;0.55;69.92
43115;BME280;28727;50.068;14.452;2023-01-28T11:12:29;100207.81;;;0.51;69.33
43115;BME280;28727;50.068;14.452;2023-01-28T11:15:03;100215.53;;;0.53;69.13
43115;BME280;28727;50.068;14.452;2023-01-28T11:17:37;100220.91;;;0.50;69.34
43115;BME280;28727;50.068;14.452;2023-01-28T11:20:18;100223.09;;;0.57;69.55
43115;BME280;28727;50.068;14.452;2023-01-28T11:22:51;100215.22;;;0.59;69.50
43115;BME280;28727;50.068;14.452;2023-01-28T11:25:33;100215.28;;;0.57;69.09
43115;BME280;28727;50.068;14.452;2023-01-28T11:28:16;100219.13;;;0.50;69.06
43115;BME280;28727;50.068;14.452;2023-01-28T11:30:52;100218.69;;;0.42;69.02
43115;BME280;28727;50.068;14.452;2023-01-28T11:33:32;100216.38;;;0.37;68.68
43115;BME280;28727;50.068;14.452;2023-01-28T11:36:24;100223.66;;;0.31;68.38
43115;BME280;28727;50.068;14.452;2023-01-28T11:39:16;100224.50;;;0.31;68.24
43115;BME280;28727;50.068;14.452;2023-01-28T11:41:51;100223.66;;;0.31;68.58
43115;BME280;28727;50.068;14.452;2023-01-28T11:44:25;100218.78;;;0.25;68.44
43115;BME280;28727;50.068;14.452;2023-01-28T11:50:15;100223.91;;;0.26;68.49
43115;BME280;28727;50.068;14.452;2023-01-28T11:56:15;100221.47;;;0.23;68.04
43115;BME280;28727;50.068;14.452;2023-01-28T12:02:17;100227.81;;;0.18;68.24
43115;BME280;28727;50.068;14.452;2023-01-28T12:05:19;100225.06;;;0.21;68.22
43115;BME280;28727;50.068;14.452;2023-01-28T12:10:50;100228.69;;;0.34;67.75
43115;BME280;28727;50.068;14.452;2023-01-28T12:16:33;100229.75;;;0.30;67.70
43115;BME280;28727;50.068;14.452;2023-01-28T12:25:49;100231.88;;;0.23;67.00
43115;BME280;28727;50.068;14.452;2023-01-28T12:28:46;100245.00;;;0.20;66.26
43115;BME280;28727;50.068;14.452;2023-01-28T12:40:18;100227.47;;;0.08;66.26
43115;BME280;28727;50.068;14.452;2023-01-28T12:43:07;100238.97;;;0.04;65.95
43115;BME280;28727;50.068;14.452;2023-01-28T12:45:50;100246.22;;;-0.03;66.21
43115;BME280;28727;50.068;14.452;2023-01-28T12:48:35;100243.44;;;0.00;66.17
43115;BME280;28727;50.068;14.452;2023-01-28T12:54:16;100235.44;;;0.05;65.69
43115;BME280;28727;50.068;14.452;2023-01-28T12:56:51;100241.09;;;-0.04;65.19
43115;BME280;28727;50.068;14.452;2023-01-28T13:10:29;100237.19;;;0.05;65.60
43115;BME280;28727;50.068;14.452;2023-01-28T13:13:04;100237.88;;;0.08;65.52
43115;BME280;28727;50.068;14.452;2023-01-28T13:15:39;100241.63;;;0.03;65.14
43115;BME280;28727;50.068;14.452;2023-01-28T13:18:43;100250.19;;;0.05;65.22
43115;BME280;28727;50.068;14.452;2023-01-28T13:26:45;100250.44;;;0.00;64.52
43115;BME280;28727;50.068;14.452;2023-01-28T13:29:20;100244.22;;;0.03;65.04
43115;BME280;28727;50.068;14.452;2023-01-28T13:31:55;100246.81;;;0.03;64.59
43115;BME280;28727;50.068;14.452;2023-01-28T13:34:31;100255.78;;;-0.03;64.47
43115;BME280;28727;50.068;14.452;2023-01-28T13:42:44;100252.25;;;0.47;69.39
43115;BME280;28727;50.068;14.452;2023-01-28T13:50:46;100251.16;;;1.28;71.74
43115;BME280;28727;50.068;14.452;2023-01-28T13:53:40;100260.03;;;1.39;66.66
43115;BME280;28727;50.068;14.452;2023-01-28T13:56:22;100259.97;;;1.25;66.07
43115;BME280;28727;50.068;14.452;2023-01-28T13:59:22;100255.97;;;1.19;64.18
43115;BME280;28727;50.068;14.452;2023-01-28T14:02:29;100260.75;;;1.27;63.92
43115;BME280;28727;50.068;14.452;2023-01-28T14:08:30;100268.34;;;1.30;65.36
43115;BME280;28727;50.068;14.452;2023-01-28T14:20:04;100283.72;;;1.35;63.31
43115;BME280;28727;50.068;14.452;2023-01-28T14:22:48;100297.31;;;1.40;65.39
43115;BME280;28727;50.068;14.452;2023-01-28T14:25:31;100289.25;;;1.44;63.92
43115;BME280;28727;50.068;14.452;2023-01-28T14:28:08;100291.63;;;1.33;67.16
43115;BME280;28727;50.068;14.452;2023-01-28T14:30:53;100302.44;;;1.41;63.35
43115;BME280;28727;50.068;14.452;2023-01-28T14:33:28;100303.84;;;1.47;64.16
43115;BME280;28727;50.068;14.452;2023-01-28T14:36:02;100308.16;;;1.32;61.69
43115;BME280;28727;50.068;14.452;2023-01-28T14:38:38;100311.03;;;0.96;62.21
43115;BME280;28727;50.068;14.452;2023-01-28T14:41:21;100318.00;;;0.96;64.00
43115;BME280;28727;50.068;14.452;2023-01-28T14:43:54;100315.25;;;0.99;65.40
43115;BME280;28727;50.068;14.452;2023-01-28T14:46:39;100311.41;;;1.06;61.73
43115;BME280;28727;50.068;14.452;2023-01-28T14:49:34;100318.44;;;1.04;62.48
43115;BME280;28727;50.068;14.452;2023-01-28T14:55:27;100322.53;;;1.08;62.58
43115;BME280;28727;50.068;14.452;2023-01-28T14:58:10;100325.03;;;1.25;63.44
43115;BME280;28727;50.068;14.452;2023-01-28T15:00:56;100326.22;;;1.35;63.33
43115;BME280;28727;50.068;14.452;2023-01-28T15:03:29;100331.19;;;1.54;61.25
43115;BME280;28727;50.068;14.452;2023-01-28T15:06:15;100336.50;;;1.52;62.32
43115;BME280;28727;50.068;14.452;2023-01-28T15:08:52;100334.25;;;1.46;60.88
43115;BME280;28727;50.068;14.452;2023-01-28T15:11:25;100338.84;;;1.11;64.09
43115;BME280;28727;50.068;14.452;2023-01-28T15:13:58;100346.19;;;1.03;60.61
43115;BME280;28727;50.068;14.452;2023-01-28T15:16:30;100342.59;;;0.90;61.16
43115;BME280;28727;50.068;14.452;2023-01-28T15:19:05;100338.97;;;0.61;60.83
43115;BME280;28727;50.068;14.452;2023-01-28T15:21:39;100349.03;;;0.67;63.07
43115;BME280;28727;50.068;14.452;2023-01-28T15:24:13;100344.50;;;0.71;61.65
43115;BME280;28727;50.068;14.452;2023-01-28T15:26:49;100355.41;;;0.62;62.21
43115;BME280;28727;50.068;14.452;2023-01-28T15:29:32;100360.66;;;0.60;59.73
43115;BME280;28727;50.068;14.452;2023-01-28T15:32:04;100358.00;;;0.29;60.98
43115;BME280;28727;50.068;14.452;2023-01-28T15:34:44;100366.56;;;0.14;60.03
43115;BME280;28727;50.068;14.452;2023-01-28T15:37:17;100361.47;;;-0.05;60.31
43115;BME280;28727;50.068;14.452;2023-01-28T15:40:02;100359.16;;;0.06;65.08
43115;BME280;28727;50.068;14.452;2023-01-28T15:42:36;100358.44;;;0.37;62.37